Time;durP1;ratioP1;P1;durP2;ratioP2;P2;SDS_P1;SDS_P2;PMS_P1;PMS_P2;Temp;Humidity;BMP_temperature;BMP_pressure;BME280_temperature;BME280_humidity;BME280_pressure;Samples;Min_cycle;Max_cycle;Signal;HPM_P1;HPM_P2
2022/07/19 00:00:24;;;;;;;81.55;15.10;;;;;;;;;;4932456;29;20083;-56
2022/07/19 00:02:52;;;;;;;76.30;14.02;;;;;;;;;;4935406;29;20458;-51
2022/07/19 00:05:20;;;;;;;64.28;14.00;;;;;;;;;;4935336;29;20030;-55
2022/07/19 00:07:47;;;;;;;65.15;14.15;;;;;;;;;;4934725;29;20796;-56
2022/07/19 00:10:15;;;;;;;76.45;14.10;;;;;;;;;;4934721;29;20502;-52
2022/07/19 00:12:42;;;;;;;65.97;14.15;;;;;;;;;;4932593;29;20487;-51
2022/07/19 00:15:11;;;;;;;73.25;14.43;;;;;;;;;;4935046;29;20032;-50
2022/07/19 00:17:42;;;;;;;79.03;15.23;;;;;;;;;;4934525;29;20028;-54
2022/07/19 00:20:10;;;;;;;68.90;14.52;;;;;;;;;;4935086;29;20494;-52
2022/07/19 00:22:37;;;;;;;92.85;15.75;;;;;;;;;;4933645;29;20028;-54
2022/07/19 00:25:05;;;;;;;83.70;16.40;;;;;;;;;;4933698;29;20483;-53
2022/07/19 00:27:32;;;;;;;73.53;15.05;;;;;;;;;;4936900;29;20019;-52
2022/07/19 00:30:00;;;;;;;82.97;16.05;;;;;;;;;;4938571;29;20027;-54
2022/07/19 00:32:27;;;;;;;72.15;14.95;;;;;;;;;;4938700;29;20020;-55
2022/07/19 00:34:54;;;;;;;81.45;16.63;;;;;;;;;;4937314;29;20031;-55
2022/07/19 00:37:21;;;;;;;86.53;16.65;;;;;;;;;;4937057;29;20142;-55
2022/07/19 00:39:48;;;;;;;81.30;16.13;;;;;;;;;;4937058;29;20051;-54
2022/07/19 00:42:15;;;;;;;74.82;15.80;;;;;;;;;;4938717;29;20032;-53
2022/07/19 00:44:42;;;;;;;76.72;16.23;;;;;;;;;;4938549;29;20052;-55
2022/07/19 00:47:09;;;;;;;82.10;16.58;;;;;;;;;;4936179;29;20032;-51
2022/07/19 00:49:36;;;;;;;70.43;17.15;;;;;;;;;;4938298;29;20034;-50
2022/07/19 00:52:03;;;;;;;76.35;17.00;;;;;;;;;;4938036;29;20039;-57
2022/07/19 00:54:31;;;;;;;70.60;16.67;;;;;;;;;;4938851;29;20111;-53
2022/07/19 00:56:59;;;;;;;74.55;16.67;;;;;;;;;;4937670;29;20034;-55
2022/07/19 00:59:27;;;;;;;82.82;17.10;;;;;;;;;;4936198;29;20492;-53
2022/07/19 01:01:55;;;;;;;79.30;16.75;;;;;;;;;;4938050;29;20028;-53
2022/07/19 01:04:22;;;;;;;86.60;17.55;;;;;;;;;;4938266;29;20046;-52
2022/07/19 01:06:49;;;;;;;63.83;16.15;;;;;;;;;;4938005;29;20024;-53
2022/07/19 01:09:16;;;;;;;69.65;17.15;;;;;;;;;;4937468;29;20114;-51
2022/07/19 01:11:43;;;;;;;71.53;16.02;;;;;;;;;;4936207;29;20491;-53
2022/07/19 01:14:10;;;;;;;79.78;19.13;;;;;;;;;;4938093;29;20124;-54
2022/07/19 01:16:37;;;;;;;87.60;18.13;;;;;;;;;;4937995;29;20513;-54
2022/07/19 01:19:06;;;;;;;79.13;17.80;;;;;;;;;;4937532;29;20110;-55
2022/07/19 01:21:34;;;;;;;66.07;16.50;;;;;;;;;;4937270;29;20494;-53
2022/07/19 01:24:01;;;;;;;77.85;18.13;;;;;;;;;;4935835;29;20075;-55
2022/07/19 01:26:29;;;;;;;76.38;16.63;;;;;;;;;;4937855;29;20024;-50
2022/07/19 01:28:56;;;;;;;67.28;16.38;;;;;;;;;;4937393;29;20504;-54
2022/07/19 01:31:23;;;;;;;66.57;16.52;;;;;;;;;;4938062;29;20028;-54
2022/07/19 01:33:50;;;;;;;58.45;17.38;;;;;;;;;;4937146;29;20032;-53
2022/07/19 01:36:17;;;;;;;61.20;17.20;;;;;;;;;;4936115;29;20059;-55
2022/07/19 01:38:44;;;;;;;75.57;17.98;;;;;;;;;;4936421;29;20024;-55
2022/07/19 01:41:11;;;;;;;59.13;15.60;;;;;;;;;;4937471;29;20490;-53
2022/07/19 01:43:39;;;;;;;60.75;15.60;;;;;;;;;;4936264;29;20454;-53
2022/07/19 01:46:05;;;;;;;71.20;17.48;;;;;;;;;;4936174;29;20059;-53
2022/07/19 01:48:33;;;;;;;63.97;15.65;;;;;;;;;;4935309;29;20028;-55
2022/07/19 01:51:00;;;;;;;55.83;15.05;;;;;;;;;;4937742;29;20553;-53
2022/07/19 01:53:26;;;;;;;64.82;16.15;;;;;;;;;;4920571;29;20458;-52
2022/07/19 01:55:53;;;;;;;63.72;16.50;;;;;;;;;;4937056;29;20062;-55
2022/07/19 01:58:20;;;;;;;64.88;16.95;;;;;;;;;;4935535;29;20027;-54
2022/07/19 02:00:47;;;;;;;57.58;15.80;;;;;;;;;;4936367;29;20051;-54
2022/07/19 02:03:16;;;;;;;65.75;15.90;;;;;;;;;;4937136;29;20024;-56
2022/07/19 02:05:43;;;;;;;57.55;16.05;;;;;;;;;;4936977;29;20032;-53
2022/07/19 02:08:10;;;;;;;59.35;15.90;;;;;;;;;;4937454;29;20028;-52
2022/07/19 02:10:37;;;;;;;56.15;16.35;;;;;;;;;;4934869;29;20063;-52
2022/07/19 02:13:04;;;;;;;55.85;14.88;;;;;;;;;;4936669;29;20524;-55
2022/07/19 02:15:31;;;;;;;57.13;15.52;;;;;;;;;;4936893;29;20031;-53
2022/07/19 02:17:58;;;;;;;67.85;16.25;;;;;;;;;;4937023;29;20024;-51
2022/07/19 02:20:25;;;;;;;58.85;15.05;;;;;;;;;;4936971;29;20056;-55
2022/07/19 02:22:52;;;;;;;53.85;14.95;;;;;;;;;;4934817;29;20093;-54
2022/07/19 02:25:19;;;;;;;45.47;14.50;;;;;;;;;;4935904;29;20031;-54
2022/07/19 02:27:46;;;;;;;55.30;15.02;;;;;;;;;;4936638;29;20030;-55
2022/07/19 02:30:13;;;;;;;52.53;15.80;;;;;;;;;;4936021;29;20398;-51
2022/07/19 02:32:41;;;;;;;50.42;14.60;;;;;;;;;;4936247;29;20036;-49
2022/07/19 02:35:10;;;;;;;50.97;14.20;;;;;;;;;;4934778;29;20402;-53
2022/07/19 02:37:42;;;;;;;53.38;15.05;;;;;;;;;;4935849;29;20115;-54
2022/07/19 02:40:09;;;;;;;52.88;15.55;;;;;;;;;;4936947;29;20016;-53
2022/07/19 02:42:36;;;;;;;51.50;14.77;;;;;;;;;;4936422;29;20372;-53
2022/07/19 02:45:03;;;;;;;52.28;15.20;;;;;;;;;;4936303;29;20787;-55
2022/07/19 02:47:30;;;;;;;50.00;13.82;;;;;;;;;;4933704;29;20167;-54
2022/07/19 02:49:57;;;;;;;54.70;15.40;;;;;;;;;;4936518;29;20443;-49
2022/07/19 02:52:24;;;;;;;48.65;14.48;;;;;;;;;;4935728;29;20047;-56
2022/07/19 02:54:51;;;;;;;47.13;13.75;;;;;;;;;;4936190;29;20031;-51
2022/07/19 02:57:18;;;;;;;52.85;14.88;;;;;;;;;;4935700;29;20031;-55
2022/07/19 02:59:45;;;;;;;45.03;12.88;;;;;;;;;;4934124;29;20031;-54
2022/07/19 03:02:12;;;;;;;56.80;15.38;;;;;;;;;;4935499;29;20103;-56
2022/07/19 03:04:39;;;;;;;46.95;14.27;;;;;;;;;;4936404;29;20023;-55
2022/07/19 03:07:06;;;;;;;50.35;14.45;;;;;;;;;;4935981;29;20028;-53
2022/07/19 03:09:33;;;;;;;48.33;14.48;;;;;;;;;;4935157;29;20057;-51
2022/07/19 03:12:00;;;;;;;43.90;13.88;;;;;;;;;;4934350;29;20261;-54
2022/07/19 03:14:27;;;;;;;39.35;13.75;;;;;;;;;;4936036;29;20027;-51
2022/07/19 03:16:54;;;;;;;40.17;13.77;;;;;;;;;;4935749;29;20086;-51
2022/07/19 03:19:21;;;;;;;43.35;13.80;;;;;;;;;;4935983;29;20494;-51
2022/07/19 03:21:49;;;;;;;46.20;14.50;;;;;;;;;;4934961;29;20095;-53
2022/07/19 03:24:16;;;;;;;49.33;14.75;;;;;;;;;;4933536;29;20091;-56
2022/07/19 03:26:43;;;;;;;44.95;14.30;;;;;;;;;;4935988;29;20036;-52
2022/07/19 03:29:10;;;;;;;40.83;12.93;;;;;;;;;;4935926;29;20023;-52
2022/07/19 03:31:38;;;;;;;40.80;13.18;;;;;;;;;;4935045;29;20409;-52
2022/07/19 03:34:05;;;;;;;44.20;13.43;;;;;;;;;;4934787;29;20114;-53
2022/07/19 03:36:32;;;;;;;32.40;12.63;;;;;;;;;;4933853;29;20148;-55
2022/07/19 03:38:59;;;;;;;40.75;13.57;;;;;;;;;;4935627;29;20031;-54
2022/07/19 03:41:26;;;;;;;44.40;13.57;;;;;;;;;;4935060;29;20502;-55
2022/07/19 03:43:53;;;;;;;46.70;14.60;;;;;;;;;;4935063;29;20122;-56
2022/07/19 03:46:20;;;;;;;46.88;13.98;;;;;;;;;;4934159;29;20091;-54
2022/07/19 03:48:47;;;;;;;43.78;13.18;;;;;;;;;;4934279;29;20035;-53
2022/07/19 03:51:14;;;;;;;40.90;13.02;;;;;;;;;;4934930;29;20127;-52
2022/07/19 03:53:41;;;;;;;41.78;13.65;;;;;;;;;;4935634;29;20031;-55
2022/07/19 03:56:08;;;;;;;39.25;13.35;;;;;;;;;;4935667;29;20130;-56
2022/07/19 03:58:35;;;;;;;38.90;13.15;;;;;;;;;;4933349;29;20042;-53
2022/07/19 04:01:02;;;;;;;36.88;12.65;;;;;;;;;;4934454;29;20036;-51
2022/07/19 04:03:29;;;;;;;43.80;13.38;;;;;;;;;;4934548;29;20031;-55
2022/07/19 04:05:56;;;;;;;42.13;13.93;;;;;;;;;;4935320;29;20039;-52
2022/07/19 04:08:23;;;;;;;39.60;13.07;;;;;;;;;;4934850;29;20023;-54
2022/07/19 04:10:50;;;;;;;42.75;12.70;;;;;;;;;;4933005;29;20043;-54
2022/07/19 04:13:17;;;;;;;39.47;12.50;;;;;;;;;;4934935;29;20082;-56
2022/07/19 04:15:44;;;;;;;35.42;12.55;;;;;;;;;;4935080;29;20035;-55
2022/07/19 04:18:11;;;;;;;34.97;12.10;;;;;;;;;;4934787;29;20513;-56
2022/07/19 04:20:38;;;;;;;37.00;12.60;;;;;;;;;;4934854;29;20027;-51
2022/07/19 04:23:05;;;;;;;41.75;12.18;;;;;;;;;;4932676;29;20708;-56
2022/07/19 04:25:31;;;;;;;42.35;13.45;;;;;;;;;;4934634;29;20478;-56
2022/07/19 04:27:58;;;;;;;37.67;12.02;;;;;;;;;;4934953;29;20035;-50
2022/07/19 04:30:25;;;;;;;36.53;11.65;;;;;;;;;;4934316;29;20091;-56
2022/07/19 04:32:53;;;;;;;40.83;12.63;;;;;;;;;;4935061;29;20039;-56
2022/07/19 04:35:19;;;;;;;36.30;12.25;;;;;;;;;;4932112;29;20151;-52
2022/07/19 04:37:46;;;;;;;32.22;12.00;;;;;;;;;;4935160;29;20099;-53
2022/07/19 04:40:14;;;;;;;39.00;11.63;;;;;;;;;;4934131;29;20027;-49
2022/07/19 04:42:41;;;;;;;29.08;11.75;;;;;;;;;;4935104;29;20083;-55
2022/07/19 04:45:08;;;;;;;32.90;11.68;;;;;;;;;;4934745;29;20048;-51
2022/07/19 04:47:35;;;;;;;34.92;11.50;;;;;;;;;;4932383;29;20019;-56
2022/07/19 04:50:02;;;;;;;37.17;11.77;;;;;;;;;;4934335;29;20075;-50
2022/07/19 04:52:29;;;;;;;33.78;10.90;;;;;;;;;;4934964;29;20036;-53
2022/07/19 04:54:56;;;;;;;38.58;11.18;;;;;;;;;;4934297;29;20051;-55
2022/07/19 04:57:22;;;;;;;29.13;11.18;;;;;;;;;;4934287;29;20036;-55
2022/07/19 04:59:49;;;;;;;31.25;10.93;;;;;;;;;;4932739;29;20042;-53
2022/07/19 05:02:16;;;;;;;33.20;10.40;;;;;;;;;;4934227;29;20490;-55
2022/07/19 05:04:43;;;;;;;28.77;10.43;;;;;;;;;;4934949;29;20028;-55
2022/07/19 05:07:10;;;;;;;34.22;11.55;;;;;;;;;;4934972;29;20211;-55
2022/07/19 05:09:37;;;;;;;32.88;10.52;;;;;;;;;;4933464;29;20032;-53
2022/07/19 05:12:07;;;;;;;31.85;10.32;;;;;;;;;;4932803;29;20542;-55
2022/07/19 05:14:34;;;;;;;27.30;10.50;;;;;;;;;;4937584;29;20044;-54
2022/07/19 05:17:01;;;;;;;25.20;10.40;;;;;;;;;;4938043;29;20031;-56
2022/07/19 05:19:28;;;;;;;31.60;10.93;;;;;;;;;;4937549;29;20032;-54
2022/07/19 05:21:55;;;;;;;26.30;9.77;;;;;;;;;;4936700;29;20438;-53
2022/07/19 05:24:22;;;;;;;35.03;10.32;;;;;;;;;;4936558;29;20163;-53
2022/07/19 05:26:49;;;;;;;29.23;10.50;;;;;;;;;;4937892;29;20082;-53
2022/07/19 05:29:16;;;;;;;25.45;9.48;;;;;;;;;;4937865;29;20509;-51
2022/07/19 05:31:43;;;;;;;23.45;9.68;;;;;;;;;;4937508;29;20167;-54
2022/07/19 05:34:10;;;;;;;27.67;10.45;;;;;;;;;;4934828;29;20757;-55
2022/07/19 05:36:37;;;;;;;25.00;10.68;;;;;;;;;;4937187;29;20030;-54
2022/07/19 05:39:04;;;;;;;24.33;9.05;;;;;;;;;;4936911;29;20038;-57
2022/07/19 05:41:31;;;;;;;23.55;8.88;;;;;;;;;;4938077;29;20177;-54
2022/07/19 05:43:58;;;;;;;24.30;9.23;;;;;;;;;;4937875;29;20084;-53
2022/07/19 05:46:25;;;;;;;32.65;9.52;;;;;;;;;;4934892;29;20047;-56
2022/07/19 05:48:52;;;;;;;26.25;9.55;;;;;;;;;;4937374;29;20038;-50
2022/07/19 05:51:19;;;;;;;20.17;8.55;;;;;;;;;;4937050;29;20063;-54
2022/07/19 05:53:46;;;;;;;23.27;9.00;;;;;;;;;;4937970;29;20038;-53
2022/07/19 05:56:13;;;;;;;24.40;8.57;;;;;;;;;;4937255;29;20494;-55
2022/07/19 05:58:40;;;;;;;21.35;9.45;;;;;;;;;;4934807;29;20035;-52
2022/07/19 06:01:19;;;;;;;22.48;8.48;;;;;;;;;;4937600;29;20553;-51
2022/07/19 06:03:47;;;;;;;23.40;8.98;;;;;;;;;;4936309;29;20039;-54
2022/07/19 06:06:15;;;;;;;18.95;8.15;;;;;;;;;;4937132;29;20035;-56
2022/07/19 06:08:43;;;;;;;18.67;8.23;;;;;;;;;;4936893;29;20031;-49
2022/07/19 06:11:10;;;;;;;18.55;7.90;;;;;;;;;;4934193;29;20043;-51
2022/07/19 06:13:37;;;;;;;21.92;8.27;;;;;;;;;;4937486;29;20106;-51
2022/07/19 06:16:04;;;;;;;18.25;7.53;;;;;;;;;;4936890;29;20491;-54
2022/07/19 06:18:34;;;;;;;23.23;8.15;;;;;;;;;;4936915;29;20031;-53
2022/07/19 06:21:10;;;;;;;20.52;8.65;;;;;;;;;;4936903;29;20039;-56
2022/07/19 06:23:38;;;;;;;18.55;8.05;;;;;;;;;;4934630;29;20030;-55
2022/07/19 06:26:06;;;;;;;17.05;7.15;;;;;;;;;;4935342;29;20035;-55
2022/07/19 06:28:33;;;;;;;18.92;7.97;;;;;;;;;;4936548;29;20032;-56
2022/07/19 06:30:59;;;;;;;21.67;8.55;;;;;;;;;;4936914;29;20032;-55
2022/07/19 06:33:27;;;;;;;17.95;7.60;;;;;;;;;;4936097;29;20094;-53
2022/07/19 06:35:54;;;;;;;21.27;7.60;;;;;;;;;;4934608;29;20035;-53
2022/07/19 06:38:21;;;;;;;20.35;7.32;;;;;;;;;;4936656;29;20035;-51
2022/07/19 06:40:48;;;;;;;17.27;6.95;;;;;;;;;;4936376;29;20027;-55
2022/07/19 06:43:15;;;;;;;18.02;6.70;;;;;;;;;;4936355;29;20031;-54
2022/07/19 06:45:42;;;;;;;15.77;7.03;;;;;;;;;;4935434;29;20572;-50
2022/07/19 06:48:09;;;;;;;20.10;6.90;;;;;;;;;;4935248;29;20493;-55
2022/07/19 06:50:36;;;;;;;17.52;7.05;;;;;;;;;;4936245;29;20039;-54
2022/07/19 06:53:03;;;;;;;19.48;7.13;;;;;;;;;;4936588;29;20035;-55
2022/07/19 06:55:30;;;;;;;16.60;7.07;;;;;;;;;;4936005;29;20115;-52
2022/07/19 06:57:56;;;;;;;17.35;6.60;;;;;;;;;;4934919;29;20079;-52
2022/07/19 07:00:24;;;;;;;19.05;6.93;;;;;;;;;;4935456;29;20023;-48
2022/07/19 07:02:51;;;;;;;17.90;6.78;;;;;;;;;;4935878;29;20114;-53
2022/07/19 07:05:18;;;;;;;16.10;6.18;;;;;;;;;;4936600;29;20031;-52
2022/07/19 07:07:45;;;;;;;15.43;6.82;;;;;;;;;;4935479;29;20036;-53
2022/07/19 07:10:12;;;;;;;15.65;6.50;;;;;;;;;;4934368;29;20066;-56
2022/07/19 07:12:39;;;;;;;14.35;6.38;;;;;;;;;;4935243;29;20028;-50
2022/07/19 07:15:07;;;;;;;16.25;6.30;;;;;;;;;;4936361;29;20023;-54
2022/07/19 07:17:35;;;;;;;17.60;6.43;;;;;;;;;;4935282;29;20028;-52
2022/07/19 07:20:02;;;;;;;15.30;6.55;;;;;;;;;;4935904;29;20032;-52
2022/07/19 07:22:29;;;;;;;16.27;6.38;;;;;;;;;;4933020;29;20040;-54
2022/07/19 07:24:56;;;;;;;11.93;6.10;;;;;;;;;;4935608;29;20041;-51
2022/07/19 07:27:23;;;;;;;12.70;5.47;;;;;;;;;;4935323;29;20056;-55
2022/07/19 07:29:50;;;;;;;13.50;6.05;;;;;;;;;;4936034;29;20062;-55
2022/07/19 07:32:17;;;;;;;14.10;5.75;;;;;;;;;;4934993;29;20032;-53
2022/07/19 07:34:45;;;;;;;14.70;6.03;;;;;;;;;;4932726;29;20750;-49
2022/07/19 07:37:12;;;;;;;11.23;5.93;;;;;;;;;;4935067;29;20035;-52
2022/07/19 07:39:39;;;;;;;12.38;5.40;;;;;;;;;;4935524;29;20036;-54
2022/07/19 07:42:06;;;;;;;14.20;6.13;;;;;;;;;;4935471;29;20502;-54
2022/07/19 07:44:33;;;;;;;11.95;5.07;;;;;;;;;;4935361;29;20411;-52
2022/07/19 07:47:00;;;;;;;15.55;5.78;;;;;;;;;;4932877;29;20058;-55
2022/07/19 07:49:28;;;;;;;11.25;5.20;;;;;;;;;;4935438;29;20062;-51
2022/07/19 07:51:55;;;;;;;11.63;5.60;;;;;;;;;;4935256;29;20138;-53
2022/07/19 07:54:21;;;;;;;11.90;5.55;;;;;;;;;;4935008;29;20099;-51
2022/07/19 07:56:48;;;;;;;16.02;5.60;;;;;;;;;;4934935;29;20031;-53
2022/07/19 07:59:15;;;;;;;12.98;5.45;;;;;;;;;;4932711;29;20023;-54
2022/07/19 08:01:44;;;;;;;15.38;5.72;;;;;;;;;;4935120;29;20035;-53
2022/07/19 08:04:11;;;;;;;12.20;5.43;;;;;;;;;;4934524;29;20098;-51
2022/07/19 08:06:38;;;;;;;13.45;5.07;;;;;;;;;;4934518;29;20066;-55
2022/07/19 08:09:05;;;;;;;13.18;5.03;;;;;;;;;;4934663;29;20031;-56
2022/07/19 08:11:32;;;;;;;12.90;4.95;;;;;;;;;;4933492;29;20035;-53
2022/07/19 08:13:59;;;;;;;9.32;4.43;;;;;;;;;;4934950;29;20083;-52
2022/07/19 08:16:26;;;;;;;11.27;4.60;;;;;;;;;;4934390;29;20584;-52
2022/07/19 08:18:53;;;;;;;10.82;4.40;;;;;;;;;;4935305;29;20028;-55
2022/07/19 08:21:20;;;;;;;11.02;4.72;;;;;;;;;;4934034;29;20538;-54
2022/07/19 08:23:47;;;;;;;9.57;3.97;;;;;;;;;;4933759;29;20034;-55
2022/07/19 08:26:14;;;;;;;10.43;4.43;;;;;;;;;;4934829;29;20047;-54
2022/07/19 08:28:41;;;;;;;8.88;4.50;;;;;;;;;;4932745;29;20120;-56
2022/07/19 08:31:08;;;;;;;10.77;4.28;;;;;;;;;;4934782;29;20044;-48
2022/07/19 08:33:35;;;;;;;14.45;5.03;;;;;;;;;;4933343;29;20028;-55
2022/07/19 08:36:02;;;;;;;8.85;4.28;;;;;;;;;;4932288;29;20063;-54
2022/07/19 08:38:29;;;;;;;9.05;4.05;;;;;;;;;;4934591;29;20036;-54
2022/07/19 08:40:56;;;;;;;9.35;4.45;;;;;;;;;;4935117;29;20379;-53
2022/07/19 08:43:23;;;;;;;12.60;4.35;;;;;;;;;;4934529;29;20028;-55
2022/07/19 08:45:50;;;;;;;10.07;5.00;;;;;;;;;;4933149;29;20522;-54
2022/07/19 08:48:17;;;;;;;7.68;4.28;;;;;;;;;;4934802;29;20557;-53
2022/07/19 08:50:45;;;;;;;16.88;4.90;;;;;;;;;;4938426;29;20051;-54
2022/07/19 08:53:12;;;;;;;8.70;4.40;;;;;;;;;;4938191;29;20063;-51
2022/07/19 08:55:39;;;;;;;9.70;3.67;;;;;;;;;;4938209;29;20032;-51
2022/07/19 08:58:06;;;;;;;5.43;3.80;;;;;;;;;;4936556;29;20038;-56
2022/07/19 09:00:34;;;;;;;8.90;3.78;;;;;;;;;;4937836;29;20035;-57
2022/07/19 09:03:05;;;;;;;7.32;3.72;;;;;;;;;;4938538;29;20043;-52
2022/07/19 09:05:35;;;;;;;7.80;3.83;;;;;;;;;;4937996;29;20027;-55
2022/07/19 09:08:13;;;;;;;6.70;3.28;;;;;;;;;;4937904;29;20032;-56
2022/07/19 09:13:33;;;;;;;9.23;4.05;;;;;;;;;;4938150;29;20074;-51
2022/07/19 09:16:00;;;;;;;6.15;3.30;;;;;;;;;;4938015;29;20107;-51
2022/07/19 09:18:31;;;;;;;6.80;3.40;;;;;;;;;;4937542;29;20031;-55
2022/07/19 09:21:02;;;;;;;7.90;3.65;;;;;;;;;;4937604;29;20657;-54
2022/07/19 09:23:29;;;;;;;8.52;3.78;;;;;;;;;;4935914;29;20042;-50
2022/07/19 09:26:00;;;;;;;8.60;3.40;;;;;;;;;;4937616;29;20031;-54
2022/07/19 09:28:31;;;;;;;8.23;4.00;;;;;;;;;;4937686;29;20067;-50
2022/07/19 09:30:59;;;;;;;8.00;3.58;;;;;;;;;;4937303;29;20086;-52
2022/07/19 09:33:27;;;;;;;10.48;3.85;;;;;;;;;;4936800;29;20028;-54
2022/07/19 09:35:58;;;;;;;8.93;3.72;;;;;;;;;;4936602;29;20084;-52
2022/07/19 09:38:29;;;;;;;9.35;3.70;;;;;;;;;;4937511;29;20060;-53
2022/07/19 09:41:16;;;;;;;6.45;3.10;;;;;;;;;;4937746;29;20545;-56
2022/07/19 09:43:51;;;;;;;8.60;3.35;;;;;;;;;;4919933;29;20036;-52
2022/07/19 09:46:32;;;;;;;7.50;3.30;;;;;;;;;;4935425;29;20043;-52
2022/07/19 09:49:12;;;;;;;7.65;3.35;;;;;;;;;;4937374;29;20055;-52
2022/07/19 09:51:47;;;;;;;8.05;3.15;;;;;;;;;;4937113;29;20048;-52
2022/07/19 09:54:15;;;;;;;7.85;3.55;;;;;;;;;;4937319;29;20063;-50
2022/07/19 09:56:43;;;;;;;11.13;3.42;;;;;;;;;;4936738;29;20035;-52
2022/07/19 09:59:10;;;;;;;8.70;3.35;;;;;;;;;;4935055;29;20034;-53
2022/07/19 10:01:38;;;;;;;10.15;3.08;;;;;;;;;;4936823;29;20036;-54
2022/07/19 10:04:09;;;;;;;11.25;3.25;;;;;;;;;;4937152;29;20107;-53
2022/07/19 10:06:37;;;;;;;8.15;3.20;;;;;;;;;;4937083;29;20103;-53
2022/07/19 10:09:04;;;;;;;10.40;3.83;;;;;;;;;;4935632;29;20046;-55
2022/07/19 10:11:31;;;;;;;10.27;3.17;;;;;;;;;;4935748;29;20039;-53
2022/07/19 10:13:58;;;;;;;10.93;3.15;;;;;;;;;;4937312;29;20023;-51
2022/07/19 10:16:28;;;;;;;14.55;4.20;;;;;;;;;;4936718;29;20078;-55
2022/07/19 10:19:02;;;;;;;11.52;3.63;;;;;;;;;;4936425;29;20521;-51
2022/07/19 10:21:30;;;;;;;11.45;3.50;;;;;;;;;;4935681;29;20106;-55
2022/07/19 10:23:57;;;;;;;11.85;3.08;;;;;;;;;;4936193;29;20036;-54
2022/07/19 10:26:37;;;;;;;9.65;2.90;;;;;;;;;;4936762;29;20442;-55
2022/07/19 10:29:08;;;;;;;8.55;2.83;;;;;;;;;;4937036;29;20094;-51
2022/07/19 10:31:35;;;;;;;7.33;3.13;;;;;;;;;;4935883;29;20078;-54
2022/07/19 10:34:07;;;;;;;8.77;2.80;;;;;;;;;;4934391;29;20034;-55
2022/07/19 10:36:55;;;;;;;15.15;3.67;;;;;;;;;;4936615;29;20031;-51
2022/07/19 10:39:35;;;;;;;11.27;3.30;;;;;;;;;;4936680;29;20036;-52
2022/07/19 10:42:05;;;;;;;11.93;3.25;;;;;;;;;;4936924;29;20055;-51
2022/07/19 10:44:33;;;;;;;17.52;3.35;;;;;;;;;;4935485;29;20063;-51
2022/07/19 10:47:00;;;;;;;10.65;3.28;;;;;;;;;;4934878;29;20039;-52
2022/07/19 10:49:46;;;;;;;12.15;2.92;;;;;;;;;;4936211;29;20040;-53
2022/07/19 10:52:28;;;;;;;10.13;3.35;;;;;;;;;;4936671;29;20054;-53
2022/07/19 10:55:14;;;;;;;10.48;3.00;;;;;;;;;;4935968;29;20031;-52
2022/07/19 10:57:40;;;;;;;9.57;3.28;;;;;;;;;;4934610;29;20032;-53
2022/07/19 11:00:19;;;;;;;12.38;3.53;;;;;;;;;;4935351;29;20103;-53
2022/07/19 11:02:47;;;;;;;9.57;3.08;;;;;;;;;;4936111;29;20038;-53
2022/07/19 11:05:26;;;;;;;11.35;3.38;;;;;;;;;;4936255;29;20034;-53
2022/07/19 11:07:54;;;;;;;12.23;3.08;;;;;;;;;;4935929;29;20027;-52
2022/07/19 11:10:31;;;;;;;10.27;2.78;;;;;;;;;;4933700;29;20047;-54
2022/07/19 11:12:59;;;;;;;13.45;3.30;;;;;;;;;;4935085;29;20482;-51
2022/07/19 11:15:29;;;;;;;10.38;2.90;;;;;;;;;;4936130;29;20063;-51
2022/07/19 11:18:00;;;;;;;7.90;3.08;;;;;;;;;;4935523;29;20028;-55
2022/07/19 11:20:31;;;;;;;12.65;3.08;;;;;;;;;;4933936;29;20439;-54
2022/07/19 11:22:59;;;;;;;14.27;3.38;;;;;;;;;;4934073;29;20055;-55
2022/07/19 11:25:28;;;;;;;13.80;3.60;;;;;;;;;;4935830;29;20107;-52
2022/07/19 11:27:55;;;;;;;9.55;3.38;;;;;;;;;;4935423;29;20035;-53
2022/07/19 11:30:23;;;;;;;13.10;3.05;;;;;;;;;;4935856;29;20145;-52
2022/07/19 11:32:55;;;;;;;14.32;3.08;;;;;;;;;;4934492;29;20055;-53
2022/07/19 11:35:22;;;;;;;12.05;2.83;;;;;;;;;;4934449;29;20023;-52
2022/07/19 11:37:49;;;;;;;9.45;2.78;;;;;;;;;;4935380;29;20032;-52
2022/07/19 11:40:16;;;;;;;8.30;2.83;;;;;;;;;;4935716;29;20032;-53
2022/07/19 11:42:47;;;;;;;10.48;2.72;;;;;;;;;;4935744;29;20044;-52
2022/07/19 11:45:14;;;;;;;14.20;2.40;;;;;;;;;;4933153;29;20451;-51
2022/07/19 11:47:45;;;;;;;7.93;2.60;;;;;;;;;;4943500;29;20039;-56
2022/07/19 11:50:13;;;;;;;9.82;2.70;;;;;;;;;;4954553;29;20393;-52
2022/07/19 11:52:43;;;;;;;7.78;2.42;;;;;;;;;;4954628;29;20114;-54
2022/07/19 11:55:10;;;;;;;12.88;3.17;;;;;;;;;;4936225;29;20394;-55
2022/07/19 11:57:37;;;;;;;10.55;3.10;;;;;;;;;;4951934;29;20035;-57
2022/07/19 12:00:06;;;;;;;6.82;2.65;;;;;;;;;;4953941;29;20027;-56
2022/07/19 12:02:53;;;;;;;9.88;2.65;;;;;;;;;;4953559;29;20039;-56
2022/07/19 12:05:20;;;;;;;7.63;2.65;;;;;;;;;;4954314;29;20023;-54
2022/07/19 12:07:48;;;;;;;8.30;2.80;;;;;;;;;;4953523;29;20061;-55
2022/07/19 12:10:34;;;;;;;13.00;2.67;;;;;;;;;;4951903;29;20039;-53
2022/07/19 12:13:02;;;;;;;7.35;2.60;;;;;;;;;;4943735;29;20055;-56
2022/07/19 12:15:49;;;;;;;8.50;2.75;;;;;;;;;;4954372;29;20438;-55
2022/07/19 12:18:17;;;;;;;6.15;2.40;;;;;;;;;;4953282;29;20033;-53
2022/07/19 12:20:45;;;;;;;9.52;2.50;;;;;;;;;;4952619;29;20637;-55
2022/07/19 12:23:13;;;;;;;6.70;2.13;;;;;;;;;;4952238;29;20103;-50
2022/07/19 12:25:40;;;;;;;12.68;2.70;;;;;;;;;;4954109;29;20102;-53
2022/07/19 12:28:08;;;;;;;7.57;2.45;;;;;;;;;;4953120;29;20394;-54
2022/07/19 12:30:35;;;;;;;5.40;2.63;;;;;;;;;;4953081;29;20031;-52
2022/07/19 12:33:09;;;;;;;5.13;2.25;;;;;;;;;;4952526;29;20039;-56
2022/07/19 12:35:43;;;;;;;6.50;2.08;;;;;;;;;;4952666;29;20053;-55
2022/07/19 12:38:11;;;;;;;8.00;2.55;;;;;;;;;;4953145;29;20113;-52
2022/07/19 12:40:39;;;;;;;9.80;2.50;;;;;;;;;;4954083;29;20070;-53
2022/07/19 12:43:07;;;;;;;4.60;2.20;;;;;;;;;;4954269;29;20132;-52
2022/07/19 12:45:33;;;;;;;9.38;2.90;;;;;;;;;;4950928;29;20047;-56
2022/07/19 12:48:01;;;;;;;6.32;2.40;;;;;;;;;;4953986;29;20035;-55
2022/07/19 12:50:29;;;;;;;5.45;2.33;;;;;;;;;;4953049;29;20071;-52
2022/07/19 12:52:58;;;;;;;6.90;2.20;;;;;;;;;;4954113;29;20026;-53
2022/07/19 12:55:25;;;;;;;6.28;2.45;;;;;;;;;;4954077;29;20047;-54
2022/07/19 12:57:53;;;;;;;8.48;2.20;;;;;;;;;;4950885;29;20051;-53
2022/07/19 13:00:20;;;;;;;11.18;1.90;;;;;;;;;;4953186;29;20062;-55
2022/07/19 13:02:48;;;;;;;6.78;1.83;;;;;;;;;;4953514;29;20033;-54
2022/07/19 13:05:15;;;;;;;8.52;2.38;;;;;;;;;;4953228;29;20023;-55
2022/07/19 13:07:43;;;;;;;5.85;2.00;;;;;;;;;;4946110;29;20051;-56
2022/07/19 13:10:10;;;;;;;8.98;2.00;;;;;;;;;;4951290;29;20501;-52
2022/07/19 13:12:37;;;;;;;5.88;2.00;;;;;;;;;;4953473;29;20394;-54
2022/07/19 13:15:05;;;;;;;9.38;2.05;;;;;;;;;;4952305;29;20043;-56
2022/07/19 13:17:33;;;;;;;5.28;1.73;;;;;;;;;;4948323;29;20035;-52
2022/07/19 13:20:00;;;;;;;6.45;1.75;;;;;;;;;;4933615;29;20054;-52
2022/07/19 13:22:27;;;;;;;5.13;2.03;;;;;;;;;;4932782;29;20040;-53
2022/07/19 13:24:54;;;;;;;5.80;1.88;;;;;;;;;;4934102;29;20031;-55
2022/07/19 13:27:20;;;;;;;4.93;1.70;;;;;;;;;;4933655;29;20572;-55
2022/07/19 13:29:47;;;;;;;5.43;1.85;;;;;;;;;;4934411;29;20487;-55
2022/07/19 13:32:14;;;;;;;5.90;1.75;;;;;;;;;;4933504;29;20040;-53
2022/07/19 13:34:41;;;;;;;4.70;1.63;;;;;;;;;;4933049;29;20537;-54
2022/07/19 13:37:08;;;;;;;4.78;1.52;;;;;;;;;;4937844;29;20090;-52
2022/07/19 13:39:36;;;;;;;5.65;1.75;;;;;;;;;;4937112;29;20036;-56
2022/07/19 13:42:03;;;;;;;7.88;1.75;;;;;;;;;;4936368;29;20058;-52
2022/07/19 13:44:30;;;;;;;5.03;1.48;;;;;;;;;;4936020;29;20126;-55
2022/07/19 13:46:57;;;;;;;3.75;1.65;;;;;;;;;;4936119;29;20024;-52
2022/07/19 13:49:24;;;;;;;9.30;1.70;;;;;;;;;;4937054;29;20028;-56
2022/07/19 13:51:52;;;;;;;5.78;1.88;;;;;;;;;;4937737;29;20058;-53
2022/07/19 13:54:19;;;;;;;7.55;1.75;;;;;;;;;;4936994;29;20026;-56
2022/07/19 13:56:46;;;;;;;8.25;1.73;;;;;;;;;;4936043;29;20024;-57
2022/07/19 13:59:13;;;;;;;9.55;1.75;;;;;;;;;;4936117;29;20031;-57
2022/07/19 14:01:40;;;;;;;4.00;1.55;;;;;;;;;;4936941;29;20028;-56
2022/07/19 14:04:07;;;;;;;4.05;1.65;;;;;;;;;;4937261;29;20063;-55
2022/07/19 14:06:34;;;;;;;8.18;1.85;;;;;;;;;;4936883;29;20532;-53
2022/07/19 14:09:01;;;;;;;7.40;1.40;;;;;;;;;;4935310;29;20047;-54
2022/07/19 14:11:27;;;;;;;6.57;1.70;;;;;;;;;;4936330;29;20036;-56
2022/07/19 14:13:54;;;;;;;8.32;1.75;;;;;;;;;;4937032;29;20079;-54
2022/07/19 14:16:21;;;;;;;7.53;1.38;;;;;;;;;;4937339;29;20035;-56
2022/07/19 14:18:48;;;;;;;5.70;1.55;;;;;;;;;;4936314;29;20114;-54
2022/07/19 14:21:15;;;;;;;6.65;1.60;;;;;;;;;;4935135;29;20114;-55
2022/07/19 14:23:42;;;;;;;7.57;1.48;;;;;;;;;;4936419;29;20678;-55
2022/07/19 14:26:09;;;;;;;5.85;1.60;;;;;;;;;;4936995;29;20148;-53
2022/07/19 14:28:36;;;;;;;8.48;1.73;;;;;;;;;;4937070;29;20524;-56
2022/07/19 14:31:03;;;;;;;12.80;1.80;;;;;;;;;;4936109;29;20036;-54
2022/07/19 14:33:30;;;;;;;15.00;1.75;;;;;;;;;;4934832;29;20027;-55
2022/07/19 14:35:57;;;;;;;9.25;1.75;;;;;;;;;;4936121;29;20426;-53